createdAt,value
2022-12-24T00:00:01.602Z,95913.27
2022-12-24T00:02:28.682Z,95912.61
2022-12-24T00:05:00.632Z,95910.27
2022-12-24T00:07:28.543Z,95911.87
2022-12-24T00:09:55.053Z,95907.77
2022-12-24T00:12:21.681Z,95915.37
2022-12-24T00:14:48.236Z,95922.57
2022-12-24T00:17:15.170Z,95918.52
2022-12-24T00:19:42.633Z,95926.39
2022-12-24T00:22:09.452Z,95930.21
2022-12-24T00:24:36.214Z,95932.59
2022-12-24T00:27:03.019Z,95928.94
2022-12-24T00:29:29.513Z,95932.83
2022-12-24T00:31:56.042Z,95926.77
2022-12-24T00:34:23.858Z,95928.08
2022-12-24T00:36:53.278Z,95923.70
2022-12-24T00:39:19.819Z,95926.29
2022-12-24T00:41:46.424Z,95933.79
2022-12-24T00:44:12.958Z,95937.59
2022-12-24T00:46:41.304Z,95941.70
2022-12-24T00:49:10.391Z,95944.56
2022-12-24T00:51:37.315Z,95944.31
2022-12-24T00:54:04.701Z,95947.80
2022-12-24T00:56:31.589Z,95943.67
2022-12-24T00:58:58.137Z,95945.13
2022-12-24T01:01:25.351Z,95942.33
2022-12-24T01:04:12.752Z,95937.39
2022-12-24T01:06:39.796Z,95936.94
2022-12-24T01:09:06.637Z,95934.48
2022-12-24T01:11:33.244Z,95935.31
2022-12-24T01:13:59.809Z,95926.52
2022-12-24T01:16:26.342Z,95923.55
2022-12-24T01:18:53.185Z,95921.05
2022-12-24T01:21:23.257Z,95927.98
2022-12-24T01:23:49.949Z,95921.10
2022-12-24T01:26:16.526Z,95915.61
2022-12-24T01:28:42.987Z,95912.98
2022-12-24T01:31:13.502Z,95909.68
2022-12-24T01:33:40.468Z,95907.33
2022-12-24T01:36:08.922Z,95901.00
2022-12-24T01:38:36.271Z,95902.58
2022-12-24T01:41:16.466Z,95896.10
2022-12-24T01:43:42.988Z,95895.02
2022-12-24T01:46:17.369Z,95894.44
2022-12-24T01:48:48.808Z,95890.08
2022-12-24T01:51:45.573Z,95888.36
2022-12-24T01:54:19.374Z,95890.42
2022-12-24T01:56:53.063Z,95897.30
2022-12-24T01:59:20.968Z,95891.21
2022-12-24T02:01:51.413Z,95889.38
2022-12-24T02:04:31.791Z,95894.45
2022-12-24T02:06:58.507Z,95892.90
2022-12-24T02:09:25.951Z,95895.41
2022-12-24T02:11:52.741Z,95894.29
2022-12-24T02:14:20.147Z,95890.04
2022-12-24T02:17:06.499Z,95888.27
2022-12-24T02:20:02.618Z,95884.11
2022-12-24T02:22:54.714Z,95886.19
2022-12-24T02:25:41.304Z,95890.98
2022-12-24T02:28:26.823Z,95893.60
2022-12-24T02:31:05.126Z,95890.17
2022-12-24T02:33:41.100Z,95886.48
2022-12-24T02:36:17.991Z,95889.42
2022-12-24T02:38:55.340Z,95891.42
2022-12-24T02:41:26.487Z,95892.71
2022-12-24T02:43:56.787Z,95895.63
2022-12-24T02:46:27.283Z,95894.48
2022-12-24T02:48:55.792Z,95890.10
2022-12-24T02:51:23.949Z,95889.01
2022-12-24T02:53:50.865Z,95886.63
2022-12-24T02:56:31.218Z,95888.98
2022-12-24T02:59:28.586Z,95886.20
2022-12-24T03:02:12.475Z,95884.26
2022-12-24T03:04:59.054Z,95889.93
2022-12-24T03:07:38.095Z,95891.88
2022-12-24T03:10:21.337Z,95883.85
2022-12-24T03:12:53.648Z,95875.67
2022-12-24T03:15:24.981Z,95876.14
2022-12-24T03:17:55.493Z,95878.28
2022-12-24T03:20:36.305Z,95869.26
2022-12-24T03:23:04.113Z,95868.91
2022-12-24T03:25:32.692Z,95862.27
2022-12-24T03:28:02.864Z,95859.83
2022-12-24T03:30:29.847Z,95857.95
2022-12-24T03:32:56.370Z,95856.30
2022-12-24T03:35:23.292Z,95859.53
2022-12-24T03:37:49.745Z,95855.70
2022-12-24T03:40:16.265Z,95856.02
2022-12-24T03:42:42.915Z,95851.61
2022-12-24T03:45:10.115Z,95848.95
2022-12-24T03:47:36.651Z,95851.91
2022-12-24T03:50:03.293Z,95848.83
2022-12-24T03:52:31.427Z,95847.80
2022-12-24T03:54:57.937Z,95846.91
2022-12-24T03:57:24.878Z,95847.52
2022-12-24T03:59:51.448Z,95849.24
2022-12-24T04:02:18.266Z,95849.70
2022-12-24T04:04:44.950Z,95851.55
2022-12-24T04:07:11.487Z,95851.58
2022-12-24T04:09:38.446Z,95859.40
2022-12-24T04:12:05.076Z,95853.98
2022-12-24T04:14:31.610Z,95850.52
2022-12-24T04:16:58.340Z,95857.98
2022-12-24T04:19:24.743Z,95852.46
2022-12-24T04:21:51.216Z,95842.90
2022-12-24T04:24:17.767Z,95847.70
2022-12-24T04:26:44.189Z,95844.13
2022-12-24T04:29:10.657Z,95843.61
2022-12-24T04:31:37.480Z,95840.13
2022-12-24T04:34:03.957Z,95837.19
2022-12-24T04:36:30.563Z,95838.67
2022-12-24T04:38:57.148Z,95838.63
2022-12-24T04:41:24.880Z,95829.48
2022-12-24T04:43:54.429Z,95835.85
2022-12-24T04:46:24.033Z,95844.15
2022-12-24T04:48:52.473Z,95834.70
2022-12-24T04:51:19.984Z,95827.88
2022-12-24T04:53:46.506Z,95840.89
2022-12-24T04:56:17.999Z,95838.59
2022-12-24T04:58:45.091Z,95836.67
2022-12-24T05:01:14.653Z,95832.08
2022-12-24T05:03:41.200Z,95829.05
2022-12-24T05:06:11.664Z,95837.20
2022-12-24T05:08:38.729Z,95819.42
2022-12-24T05:11:06.396Z,95820.06
2022-12-24T05:13:42.335Z,95815.01
2022-12-24T05:16:11.957Z,95803.16
2022-12-24T05:18:38.694Z,95803.56
2022-12-24T05:21:10.211Z,95798.95
2022-12-24T05:23:51.613Z,95788.17
2022-12-24T05:26:35.556Z,95784.85
2022-12-24T05:29:04.756Z,95778.79
2022-12-24T05:31:32.935Z,95773.10
2022-12-24T05:34:00.385Z,95767.67
2022-12-24T05:36:26.915Z,95763.77
2022-12-24T05:38:53.562Z,95769.90
2022-12-24T05:41:22.012Z,95765.98
2022-12-24T05:43:48.607Z,95757.15
2022-12-24T05:46:18.190Z,95755.63
2022-12-24T05:48:45.709Z,95761.11
2022-12-24T05:51:14.373Z,95757.30
2022-12-24T05:53:41.271Z,95760.52
2022-12-24T05:56:10.597Z,95754.70
2022-12-24T05:58:38.145Z,95758.34
2022-12-24T06:01:06.044Z,95752.91
2022-12-24T06:03:33.852Z,95756.72
2022-12-24T06:06:03.627Z,95751.78
2022-12-24T06:08:30.984Z,95742.30
2022-12-24T06:10:59.444Z,95757.55
2022-12-24T06:13:27.596Z,95764.50
2022-12-24T06:15:55.601Z,95753.23
2022-12-24T06:18:22.679Z,95746.64
2022-12-24T06:20:53.066Z,95756.83
2022-12-24T06:23:20.679Z,95753.22
2022-12-24T06:25:48.195Z,95751.06
2022-12-24T06:28:15.178Z,95757.24
2022-12-24T06:30:41.681Z,95754.34
2022-12-24T06:33:08.364Z,95757.65
2022-12-24T06:35:34.802Z,95760.90
2022-12-24T06:38:01.264Z,95748.66
2022-12-24T06:40:28.089Z,95762.75
2022-12-24T06:42:54.553Z,95768.37
2022-12-24T06:45:21.029Z,95759.73
2022-12-24T06:47:47.509Z,95764.30
2022-12-24T06:50:13.978Z,95766.66
2022-12-24T06:52:40.444Z,95770.26
2022-12-24T06:55:07.518Z,95773.17
2022-12-24T06:57:34.202Z,95772.96
2022-12-24T07:00:00.695Z,95772.95
2022-12-24T07:02:27.515Z,95765.10
2022-12-24T07:04:54.154Z,95760.84
2022-12-24T07:07:20.679Z,95766.23
2022-12-24T07:09:47.262Z,95759.20
2022-12-24T07:12:13.923Z,95763.09
2022-12-24T07:14:40.403Z,95745.35
2022-12-24T07:17:06.991Z,95748.64
2022-12-24T07:19:33.692Z,95757.01
2022-12-24T07:22:00.213Z,95755.42
2022-12-24T07:24:26.725Z,95757.77
2022-12-24T07:26:53.375Z,95753.98
2022-12-24T07:29:20.269Z,95750.37
2022-12-24T07:31:46.809Z,95758.66
2022-12-24T07:34:13.415Z,95761.77
2022-12-24T07:36:39.853Z,95756.53
2022-12-24T07:39:06.346Z,95755.56
2022-12-24T07:41:37.923Z,95762.80
2022-12-24T07:44:11.824Z,95761.52
2022-12-24T07:46:38.524Z,95773.91
2022-12-24T07:49:05.528Z,95757.83
2022-12-24T07:51:32.273Z,95774.88
2022-12-24T07:53:59.193Z,95773.02
2022-12-24T07:56:25.725Z,95778.96
2022-12-24T07:58:52.344Z,95782.65
2022-12-24T08:01:18.975Z,95778.59
2022-12-24T08:03:45.713Z,95778.30
2022-12-24T08:06:12.548Z,95775.15
2022-12-24T08:08:39.404Z,95785.23
2022-12-24T08:11:06.496Z,95789.24
2022-12-24T08:13:33.994Z,95786.20
2022-12-24T08:16:04.454Z,95787.95
2022-12-24T08:18:31.649Z,95787.15
2022-12-24T08:20:58.780Z,95788.60
2022-12-24T08:23:25.519Z,95780.83
2022-12-24T08:25:52.291Z,95776.44
2022-12-24T08:28:20.347Z,95778.65
2022-12-24T08:30:50.634Z,95775.98
2022-12-24T08:33:17.384Z,95781.27
2022-12-24T08:35:49.143Z,95787.34
2022-12-24T08:38:16.238Z,95787.22
2022-12-24T08:40:43.475Z,95776.00
2022-12-24T08:43:10.177Z,95759.70
2022-12-24T08:45:40.864Z,95756.16
2022-12-24T08:48:09.217Z,95768.75
2022-12-24T08:50:40.002Z,95776.48
2022-12-24T08:53:07.289Z,95780.84
2022-12-24T08:55:34.386Z,95778.20
2022-12-24T08:58:02.849Z,95781.05
2022-12-24T09:00:29.578Z,95784.42
2022-12-24T09:02:57.739Z,95786.32
2022-12-24T09:05:47.254Z,95790.39
2022-12-24T09:08:13.789Z,95785.23
2022-12-24T09:10:40.333Z,95782.33
2022-12-24T09:13:06.869Z,95777.14
2022-12-24T09:15:33.441Z,95774.37
2022-12-24T09:18:00.722Z,95770.83
2022-12-24T09:20:27.319Z,95776.14
2022-12-24T09:22:53.859Z,95766.41
2022-12-24T09:25:20.554Z,95756.77
2022-12-24T09:27:47.191Z,95760.61
2022-12-24T09:30:14.474Z,95774.98
2022-12-24T09:32:41.238Z,95784.31
2022-12-24T09:35:09.077Z,95784.04
2022-12-24T09:37:36.655Z,95777.59
2022-12-24T09:40:03.799Z,95775.29
2022-12-24T09:42:49.631Z,95781.79
2022-12-24T09:45:32.874Z,95793.07
2022-12-24T09:48:13.094Z,95799.33
2022-12-24T09:50:49.764Z,95804.50
2022-12-24T09:53:29.509Z,95802.39
2022-12-24T09:56:01.168Z,95803.36
2022-12-24T09:58:36.816Z,95799.52
2022-12-24T10:01:03.426Z,95803.34
2022-12-24T10:03:30.879Z,95804.29
2022-12-24T10:06:08.706Z,95808.20
2022-12-24T10:09:01.958Z,95801.30
2022-12-24T10:11:46.426Z,95810.77
2022-12-24T10:14:30.521Z,95809.69
2022-12-24T10:17:17.440Z,95804.58
2022-12-24T10:20:19.795Z,95806.00
2022-12-24T10:22:59.550Z,95803.71
2022-12-24T10:25:53.153Z,95795.05
2022-12-24T10:28:29.327Z,95798.08
2022-12-24T10:31:02.672Z,95807.38
2022-12-24T10:33:45.815Z,95809.48
2022-12-24T10:36:18.042Z,95804.83
2022-12-24T10:38:45.551Z,95808.56
2022-12-24T10:41:13.982Z,95803.98
2022-12-24T10:43:43.037Z,95806.57
2022-12-24T10:46:21.576Z,95805.17
2022-12-24T10:48:58.309Z,95803.76
2022-12-24T10:51:51.657Z,95801.99
2022-12-24T10:54:26.637Z,95803.94
2022-12-24T10:56:58.454Z,95795.66
2022-12-24T10:59:29.308Z,95800.03
2022-12-24T11:01:57.744Z,95804.10
2022-12-24T11:04:29.041Z,95813.60
2022-12-24T11:06:59.670Z,95812.92
2022-12-24T11:09:30.765Z,95824.82
2022-12-24T11:12:03.758Z,95823.92
2022-12-24T11:14:37.151Z,95828.38
2022-12-24T11:17:04.358Z,95829.92
2022-12-24T11:19:34.117Z,95825.82
2022-12-24T11:22:04.899Z,95825.29
2022-12-24T11:24:37.269Z,95836.27
2022-12-24T11:27:29.273Z,95841.69
2022-12-24T11:30:20.267Z,95840.45
2022-12-24T11:32:49.995Z,95840.98
2022-12-24T11:35:21.546Z,95837.37
2022-12-24T11:38:08.185Z,95840.54
2022-12-24T11:40:39.355Z,95854.88
2022-12-24T11:43:14.325Z,95852.63
2022-12-24T11:45:49.477Z,95856.98
2022-12-24T11:48:28.699Z,95855.86
2022-12-24T11:50:59.422Z,95862.06
2022-12-24T11:53:35.852Z,95866.24
2022-12-24T11:56:14.767Z,95860.38
2022-12-24T11:58:47.270Z,95872.16
2022-12-24T12:01:25.601Z,95873.95
2022-12-24T12:03:57.140Z,95875.40
2022-12-24T12:06:46.321Z,95876.85
2022-12-24T12:09:21.495Z,95881.80
2022-12-24T12:11:56.000Z,95882.84
2022-12-24T12:14:33.815Z,95881.07
2022-12-24T12:17:26.428Z,95874.83
2022-12-24T12:20:01.628Z,95875.17
2022-12-24T12:22:43.315Z,95874.65
2022-12-24T12:25:24.454Z,95881.67
2022-12-24T12:27:53.635Z,95890.11
2022-12-24T12:30:24.704Z,95889.58
2022-12-24T12:33:19.916Z,95884.89
2022-12-24T12:35:48.338Z,95886.70
2022-12-24T12:38:22.359Z,95888.81
2022-12-24T12:41:18.283Z,95895.73
2022-12-24T12:44:18.794Z,95896.48
2022-12-24T12:47:14.743Z,95897.66
2022-12-24T12:50:09.180Z,95901.59
2022-12-24T12:52:59.629Z,95912.23
2022-12-24T12:55:38.744Z,95922.52
2022-12-24T12:58:19.643Z,95927.08
2022-12-24T13:00:51.219Z,95929.08
2022-12-24T13:03:43.239Z,95931.73
2022-12-24T13:06:25.889Z,95940.02
2022-12-24T13:09:20.142Z,95942.85
2022-12-24T13:12:17.261Z,95941.79
2022-12-24T13:15:10.993Z,95945.44
2022-12-24T13:18:06.127Z,95949.21
2022-12-24T13:20:36.209Z,95949.96
2022-12-24T13:23:21.361Z,95953.43
2022-12-24T13:25:51.566Z,95952.84
2022-12-24T13:28:32.637Z,95956.87
2022-12-24T13:31:23.921Z,95955.44
2022-12-24T13:33:55.349Z,95955.35
2022-12-24T13:36:22.818Z,95949.94
2022-12-24T13:38:57.306Z,95954.14
2022-12-24T13:41:49.397Z,95952.36
2022-12-24T13:44:20.043Z,95953.80
2022-12-24T13:46:56.108Z,95955.30
2022-12-24T13:49:31.347Z,95955.31
2022-12-24T13:52:21.211Z,95959.44
2022-12-24T13:55:05.515Z,95958.39
2022-12-24T13:57:40.019Z,95957.96
2022-12-24T14:00:26.381Z,95963.14
2022-12-24T14:03:06.967Z,95970.67
2022-12-24T14:05:45.786Z,95974.34
2022-12-24T14:08:32.761Z,95980.05
2022-12-24T14:11:09.720Z,95984.19
2022-12-24T14:14:09.303Z,95986.83
2022-12-24T14:16:48.104Z,95989.75
2022-12-24T14:19:21.009Z,95995.15
2022-12-24T14:22:05.080Z,95998.73
2022-12-24T14:24:36.666Z,96005.63
2022-12-24T14:27:16.277Z,96007.86
2022-12-24T14:29:51.558Z,96017.56
2022-12-24T14:32:18.668Z,96016.43
2022-12-24T14:34:45.252Z,96019.27
2022-12-24T14:37:13.352Z,96023.66
2022-12-24T14:39:47.272Z,96023.51
2022-12-24T14:42:36.102Z,96027.79
2022-12-24T14:45:23.361Z,96030.34
2022-12-24T14:48:16.486Z,96037.64
2022-12-24T14:51:03.349Z,96042.55
2022-12-24T14:53:56.863Z,96041.58
2022-12-24T14:56:24.825Z,96048.75
2022-12-24T14:58:51.860Z,96050.52
2022-12-24T15:01:29.360Z,96051.63
2022-12-24T15:04:17.335Z,96052.27
2022-12-24T15:06:48.678Z,96058.45
2022-12-24T15:09:22.109Z,96062.18
2022-12-24T15:11:51.915Z,96059.94
2022-12-24T15:14:21.090Z,96065.58
2022-12-24T15:16:58.747Z,96070.87
2022-12-24T15:19:32.516Z,96070.55
2022-12-24T15:21:59.268Z,96073.02
2022-12-24T15:24:32.476Z,96076.45
2022-12-24T15:27:02.226Z,96087.16
2022-12-24T15:29:31.572Z,96090.01
2022-12-24T15:32:00.281Z,96091.83
2022-12-24T15:34:40.118Z,96089.42
2022-12-24T15:37:17.190Z,96089.95
2022-12-24T15:39:52.709Z,96093.35
2022-12-24T15:42:21.862Z,96097.84
2022-12-24T15:45:04.763Z,96102.58
2022-12-24T15:47:37.356Z,96108.31
2022-12-24T15:50:14.543Z,96112.60
2022-12-24T15:52:42.603Z,96115.41
2022-12-24T15:55:24.236Z,96116.38
2022-12-24T15:57:53.725Z,96117.69
2022-12-24T16:00:23.519Z,96114.65
2022-12-24T16:02:50.465Z,96111.48
2022-12-24T16:05:32.163Z,96112.09
2022-12-24T16:08:24.215Z,96109.45
2022-12-24T16:11:08.996Z,96108.56
2022-12-24T16:13:40.696Z,96107.05
2022-12-24T16:16:12.486Z,96115.67
2022-12-24T16:18:52.007Z,96115.02
2022-12-24T16:21:23.763Z,96112.20
2022-12-24T16:23:53.553Z,96108.32
2022-12-24T16:26:20.152Z,96109.81
2022-12-24T16:28:47.124Z,96116.30
2022-12-24T16:31:31.020Z,96118.38
2022-12-24T16:33:59.094Z,96120.86
2022-12-24T16:36:26.555Z,96122.98
2022-12-24T16:39:05.449Z,96124.92
2022-12-24T16:41:51.964Z,96125.73
2022-12-24T16:44:18.458Z,96127.58
2022-12-24T16:46:44.983Z,96129.11
2022-12-24T16:49:17.585Z,96127.59
2022-12-24T16:51:45.012Z,96128.73
2022-12-24T16:54:13.067Z,96134.67
2022-12-24T16:56:40.346Z,96141.52
2022-12-24T16:59:15.560Z,96142.85
2022-12-24T17:01:42.370Z,96141.46
2022-12-24T17:04:09.041Z,96145.50
2022-12-24T17:06:35.862Z,96138.73
2022-12-24T17:09:03.054Z,96145.52
2022-12-24T17:11:29.684Z,96142.19
2022-12-24T17:13:56.270Z,96151.65
2022-12-24T17:16:22.927Z,96147.25
2022-12-24T17:18:51.449Z,96153.60
2022-12-24T17:21:18.862Z,96158.11
2022-12-24T17:23:45.439Z,96161.77
2022-12-24T17:26:15.254Z,96165.57
2022-12-24T17:28:42.525Z,96171.45
2022-12-24T17:31:11.757Z,96181.39
2022-12-24T17:33:38.370Z,96180.70
2022-12-24T17:36:05.550Z,96182.33
2022-12-24T17:38:32.059Z,96184.55
2022-12-24T17:41:02.044Z,96184.11
2022-12-24T17:43:28.538Z,96186.00
2022-12-24T17:45:55.201Z,96181.44
2022-12-24T17:48:21.690Z,96184.55
2022-12-24T17:50:48.313Z,96189.38
2022-12-24T17:53:14.838Z,96195.88
2022-12-24T17:55:42.423Z,96197.07
2022-12-24T17:58:10.974Z,96200.79
2022-12-24T18:00:37.945Z,96200.98
2022-12-24T18:03:04.718Z,96197.95
2022-12-24T18:05:34.591Z,96197.92
2022-12-24T18:08:01.274Z,96199.69
2022-12-24T18:10:27.957Z,96196.92
2022-12-24T18:12:54.447Z,96201.23
2022-12-24T18:15:21.465Z,96202.04
2022-12-24T18:17:52.682Z,96199.99
2022-12-24T18:20:20.374Z,96202.94
2022-12-24T18:22:47.808Z,96199.70
2022-12-24T18:25:15.207Z,96198.95
2022-12-24T18:27:41.867Z,96202.75
2022-12-24T18:30:09.743Z,96202.58
2022-12-24T18:32:37.157Z,96204.13
2022-12-24T18:35:04.445Z,96209.80
2022-12-24T18:37:31.612Z,96213.58
2022-12-24T18:39:58.171Z,96215.27
2022-12-24T18:42:25.265Z,96220.05
2022-12-24T18:44:52.131Z,96221.08
2022-12-24T18:47:19.157Z,96224.77
2022-12-24T18:49:45.878Z,96229.95
2022-12-24T18:52:13.598Z,96228.00
2022-12-24T18:54:43.351Z,96230.23
2022-12-24T18:57:10.005Z,96233.11
2022-12-24T18:59:38.383Z,96237.40
2022-12-24T19:02:05.124Z,96239.04
2022-12-24T19:04:31.926Z,96241.98
2022-12-24T19:06:59.791Z,96243.71
2022-12-24T19:09:26.516Z,96249.48
2022-12-24T19:11:53.250Z,96245.40
2022-12-24T19:14:19.845Z,96252.32
2022-12-24T19:16:46.669Z,96259.14
2022-12-24T19:19:13.330Z,96260.98
2022-12-24T19:21:39.944Z,96263.54
2022-12-24T19:24:09.681Z,96267.25
2022-12-24T19:26:36.970Z,96270.08
2022-12-24T19:29:03.471Z,96273.25
2022-12-24T19:31:31.460Z,96277.45
2022-12-24T19:33:58.198Z,96280.30
2022-12-24T19:36:28.244Z,96282.08
2022-12-24T19:38:56.141Z,96285.02
2022-12-24T19:41:25.925Z,96292.29
2022-12-24T19:43:55.445Z,96293.70
2022-12-24T19:46:25.603Z,96297.45
2022-12-24T19:48:55.235Z,96302.04
2022-12-24T19:51:23.038Z,96302.44
2022-12-24T19:53:49.804Z,96303.38
2022-12-24T19:56:18.922Z,96306.42
2022-12-24T19:58:46.478Z,96302.27
2022-12-24T20:01:17.148Z,96302.30
2022-12-24T20:03:45.840Z,96303.50
2022-12-24T20:06:13.552Z,96302.27
2022-12-24T20:08:40.053Z,96299.98
2022-12-24T20:11:08.285Z,96298.36
2022-12-24T20:13:36.489Z,96304.48
2022-12-24T20:16:06.178Z,96305.59
2022-12-24T20:18:33.355Z,96309.64
2022-12-24T20:21:01.904Z,96321.01
2022-12-24T20:23:28.960Z,96326.11
2022-12-24T20:26:00.952Z,96325.50
2022-12-24T20:28:29.518Z,96328.34
2022-12-24T20:30:55.984Z,96329.31
2022-12-24T20:33:23.348Z,96330.98
2022-12-24T20:35:50.473Z,96331.67
2022-12-24T20:38:17.059Z,96337.17
2022-12-24T20:40:45.368Z,96338.57
2022-12-24T20:43:12.366Z,96338.14
2022-12-24T20:45:39.046Z,96348.58
2022-12-24T20:48:06.332Z,96347.42
2022-12-24T20:50:32.977Z,96357.92
2022-12-24T20:52:59.728Z,96362.39
2022-12-24T20:55:26.309Z,96370.65
2022-12-24T20:57:52.891Z,96372.65
2022-12-24T21:00:20.181Z,96374.13
2022-12-24T21:02:46.927Z,96379.40
2022-12-24T21:05:13.787Z,96376.00
2022-12-24T21:07:42.345Z,96384.48
2022-12-24T21:10:11.734Z,96384.52
2022-12-24T21:12:49.269Z,96387.33
2022-12-24T21:15:18.562Z,96395.98
2022-12-24T21:17:46.328Z,96395.54
2022-12-24T21:20:14.067Z,96392.21
2022-12-24T21:22:41.079Z,96398.02
2022-12-24T21:25:08.803Z,96392.98
2022-12-24T21:27:36.442Z,96390.95
2022-12-24T21:30:04.855Z,96387.88
2022-12-24T21:32:31.390Z,96382.55
2022-12-24T21:34:57.881Z,96382.34
2022-12-24T21:37:24.435Z,96381.87
2022-12-24T21:39:50.957Z,96386.67
2022-12-24T21:42:17.526Z,96396.16
2022-12-24T21:44:44.252Z,96393.47
2022-12-24T21:47:10.861Z,96387.77
2022-12-24T21:49:54.135Z,96387.52
2022-12-24T21:52:21.546Z,96384.52
2022-12-24T21:54:48.095Z,96386.11
2022-12-24T21:57:34.543Z,96396.34
2022-12-24T22:00:21.084Z,96394.44
2022-12-24T22:02:50.472Z,96401.33
2022-12-24T22:05:17.535Z,96401.27
2022-12-24T22:07:55.164Z,96404.06
2022-12-24T22:10:35.250Z,96404.94
2022-12-24T22:13:06.767Z,96406.39
2022-12-24T22:15:35.168Z,96410.83
2022-12-24T22:18:02.297Z,96411.04
2022-12-24T22:20:28.916Z,96412.41
2022-12-24T22:22:55.450Z,96417.49
2022-12-24T22:25:21.926Z,96416.91
2022-12-24T22:27:48.520Z,96422.73
2022-12-24T22:30:15.214Z,96417.80
2022-12-24T22:32:41.721Z,96419.74
2022-12-24T22:35:08.596Z,96418.39
2022-12-24T22:37:35.795Z,96422.45
2022-12-24T22:40:02.547Z,96428.31
2022-12-24T22:42:32.393Z,96429.66
2022-12-24T22:44:59.780Z,96431.05
2022-12-24T22:47:26.773Z,96437.05
2022-12-24T22:49:53.336Z,96440.38
2022-12-24T22:52:19.840Z,96439.52
2022-12-24T22:54:46.352Z,96447.23
2022-12-24T22:57:12.836Z,96446.40
2022-12-24T22:59:39.366Z,96447.95
2022-12-24T23:02:07.258Z,96449.96
2022-12-24T23:04:36.070Z,96452.52
2022-12-24T23:07:05.014Z,96456.22
2022-12-24T23:09:31.912Z,96452.88
2022-12-24T23:11:58.520Z,96449.45
2022-12-24T23:14:39.265Z,96459.20
2022-12-24T23:17:07.738Z,96465.91
2022-12-24T23:19:34.397Z,96474.67
2022-12-24T23:22:02.216Z,96480.80
2022-12-24T23:24:29.006Z,96484.01
2022-12-24T23:26:58.102Z,96487.43
2022-12-24T23:29:24.659Z,96490.46
2022-12-24T23:31:51.179Z,96496.71
2022-12-24T23:34:17.615Z,96494.45
2022-12-24T23:36:44.134Z,96495.81
2022-12-24T23:39:11.017Z,96494.73
2022-12-24T23:41:37.441Z,96498.80
2022-12-24T23:44:04.075Z,96499.83
2022-12-24T23:46:30.771Z,96504.08
2022-12-24T23:48:59.831Z,96512.32
2022-12-24T23:51:28.040Z,96510.29
2022-12-24T23:53:56.409Z,96514.85
2022-12-24T23:56:24.739Z,96519.00
2022-12-24T23:58:51.618Z,96519.87
